sensor_id;sensor_type;location;lat;lon;timestamp;temperature;humidity
17671;DHT22;8954;48.694;8.940;2022-12-07T00:00:50;3.70;99.90
17671;DHT22;8954;48.694;8.940;2022-12-07T00:03:29;3.60;99.90
17671;DHT22;8954;48.694;8.940;2022-12-07T00:05:58;3.70;99.90
17671;DHT22;8954;48.694;8.940;2022-12-07T00:08:23;3.80;99.90
17671;DHT22;8954;48.694;8.940;2022-12-07T00:10:49;3.80;99.90
17671;DHT22;8954;48.694;8.940;2022-12-07T00:13:15;3.80;99.90
17671;DHT22;8954;48.694;8.940;2022-12-07T00:15:40;3.70;99.90
17671;DHT22;8954;48.694;8.940;2022-12-07T00:18:06;3.70;99.90
17671;DHT22;8954;48.694;8.940;2022-12-07T00:20:32;3.60;99.90
17671;DHT22;8954;48.694;8.940;2022-12-07T00:22:58;3.60;99.90
17671;DHT22;8954;48.694;8.940;2022-12-07T00:25:24;3.70;99.90
17671;DHT22;8954;48.694;8.940;2022-12-07T00:27:51;3.70;99.90
17671;DHT22;8954;48.694;8.940;2022-12-07T00:30:17;3.80;99.90
17671;DHT22;8954;48.694;8.940;2022-12-07T00:32:42;3.70;99.90
17671;DHT22;8954;48.694;8.940;2022-12-07T00:35:08;3.70;99.90
17671;DHT22;8954;48.694;8.940;2022-12-07T00:37:34;3.70;99.90
17671;DHT22;8954;48.694;8.940;2022-12-07T00:40:02;3.70;99.90
17671;DHT22;8954;48.694;8.940;2022-12-07T00:42:28;3.80;99.90
17671;DHT22;8954;48.694;8.940;2022-12-07T00:44:53;3.80;99.90
17671;DHT22;8954;48.694;8.940;2022-12-07T00:47:19;3.70;99.90
17671;DHT22;8954;48.694;8.940;2022-12-07T00:49:44;3.80;99.90
17671;DHT22;8954;48.694;8.940;2022-12-07T00:52:10;3.80;99.90
17671;DHT22;8954;48.694;8.940;2022-12-07T00:54:35;3.80;99.90
17671;DHT22;8954;48.694;8.940;2022-12-07T00:57:01;3.80;99.90
17671;DHT22;8954;48.694;8.940;2022-12-07T00:59:26;3.90;99.90
17671;DHT22;8954;48.694;8.940;2022-12-07T01:01:52;3.90;99.90
17671;DHT22;8954;48.694;8.940;2022-12-07T01:04:17;3.90;99.90
17671;DHT22;8954;48.694;8.940;2022-12-07T01:06:43;3.80;99.90
17671;DHT22;8954;48.694;8.940;2022-12-07T01:09:09;3.80;99.90
17671;DHT22;8954;48.694;8.940;2022-12-07T01:11:35;3.80;99.90
17671;DHT22;8954;48.694;8.940;2022-12-07T01:14:00;3.80;99.90
17671;DHT22;8954;48.694;8.940;2022-12-07T01:16:28;3.80;99.90
17671;DHT22;8954;48.694;8.940;2022-12-07T01:18:55;3.70;99.90
17671;DHT22;8954;48.694;8.940;2022-12-07T01:21:27;3.70;99.90
17671;DHT22;8954;48.694;8.940;2022-12-07T01:23:54;3.60;99.90
17671;DHT22;8954;48.694;8.940;2022-12-07T01:26:22;3.70;99.90
17671;DHT22;8954;48.694;8.940;2022-12-07T01:28:48;3.70;99.90
17671;DHT22;8954;48.694;8.940;2022-12-07T01:31:19;3.70;99.90
17671;DHT22;8954;48.694;8.940;2022-12-07T01:33:48;3.70;99.90
17671;DHT22;8954;48.694;8.940;2022-12-07T01:38:40;3.70;99.90
17671;DHT22;8954;48.694;8.940;2022-12-07T01:41:05;3.70;99.90
17671;DHT22;8954;48.694;8.940;2022-12-07T01:43:33;3.60;99.90
17671;DHT22;8954;48.694;8.940;2022-12-07T01:45:59;3.70;99.90
17671;DHT22;8954;48.694;8.940;2022-12-07T01:48:38;3.80;99.90
17671;DHT22;8954;48.694;8.940;2022-12-07T01:51:10;3.80;99.90
17671;DHT22;8954;48.694;8.940;2022-12-07T01:53:40;3.80;99.90
17671;DHT22;8954;48.694;8.940;2022-12-07T01:56:10;3.80;99.90
17671;DHT22;8954;48.694;8.940;2022-12-07T01:58:36;3.80;99.90
17671;DHT22;8954;48.694;8.940;2022-12-07T02:01:02;3.70;99.90
17671;DHT22;8954;48.694;8.940;2022-12-07T02:03:39;3.70;99.90
17671;DHT22;8954;48.694;8.940;2022-12-07T02:06:06;3.60;99.90
17671;DHT22;8954;48.694;8.940;2022-12-07T02:08:34;3.70;99.90
17671;DHT22;8954;48.694;8.940;2022-12-07T02:11:01;3.60;99.90
17671;DHT22;8954;48.694;8.940;2022-12-07T02:13:32;3.60;99.90
17671;DHT22;8954;48.694;8.940;2022-12-07T02:16:28;3.60;99.90
17671;DHT22;8954;48.694;8.940;2022-12-07T02:19:23;3.60;99.90
17671;DHT22;8954;48.694;8.940;2022-12-07T02:24:46;3.50;99.90
17671;DHT22;8954;48.694;8.940;2022-12-07T02:30:12;3.50;99.90
17671;DHT22;8954;48.694;8.940;2022-12-07T02:35:41;3.40;99.90
17671;DHT22;8954;48.694;8.940;2022-12-07T02:40:57;3.30;99.90
17671;DHT22;8954;48.694;8.940;2022-12-07T02:43:31;3.20;99.90
17671;DHT22;8954;48.694;8.940;2022-12-07T02:46:06;3.20;99.90
17671;DHT22;8954;48.694;8.940;2022-12-07T02:48:33;3.20;99.90
17671;DHT22;8954;48.694;8.940;2022-12-07T02:50:59;3.20;99.90
17671;DHT22;8954;48.694;8.940;2022-12-07T02:53:41;3.20;99.90
17671;DHT22;8954;48.694;8.940;2022-12-07T02:56:20;3.20;99.90
17671;DHT22;8954;48.694;8.940;2022-12-07T03:02:17;3.10;99.90
17671;DHT22;8954;48.694;8.940;2022-12-07T03:10:39;3.30;99.90
17671;DHT22;8954;48.694;8.940;2022-12-07T03:13:18;3.30;99.90
17671;DHT22;8954;48.694;8.940;2022-12-07T03:16:29;3.20;99.90
17671;DHT22;8954;48.694;8.940;2022-12-07T03:21:17;3.20;99.90
17671;DHT22;8954;48.694;8.940;2022-12-07T03:23:46;3.20;99.90
17671;DHT22;8954;48.694;8.940;2022-12-07T03:26:14;3.10;99.90
17671;DHT22;8954;48.694;8.940;2022-12-07T03:28:45;3.20;99.90
17671;DHT22;8954;48.694;8.940;2022-12-07T03:31:22;3.20;99.90
17671;DHT22;8954;48.694;8.940;2022-12-07T03:34:07;3.20;99.90
17671;DHT22;8954;48.694;8.940;2022-12-07T03:36:47;3.20;99.90
17671;DHT22;8954;48.694;8.940;2022-12-07T03:39:27;3.20;99.90
17671;DHT22;8954;48.694;8.940;2022-12-07T03:41:55;3.20;99.90
17671;DHT22;8954;48.694;8.940;2022-12-07T03:44:22;3.20;99.90
17671;DHT22;8954;48.694;8.940;2022-12-07T03:49:59;3.20;99.90
17671;DHT22;8954;48.694;8.940;2022-12-07T03:52:47;3.40;99.90
17671;DHT22;8954;48.694;8.940;2022-12-07T03:55:32;3.30;99.90
17671;DHT22;8954;48.694;8.940;2022-12-07T03:58:12;3.30;99.90
17671;DHT22;8954;48.694;8.940;2022-12-07T04:00:40;3.20;99.90
17671;DHT22;8954;48.694;8.940;2022-12-07T04:03:06;3.20;99.90
17671;DHT22;8954;48.694;8.940;2022-12-07T04:05:32;3.10;99.90
17671;DHT22;8954;48.694;8.940;2022-12-07T04:07:57;3.10;99.90
17671;DHT22;8954;48.694;8.940;2022-12-07T04:10:23;3.10;99.90
17671;DHT22;8954;48.694;8.940;2022-12-07T04:12:48;3.00;99.90
17671;DHT22;8954;48.694;8.940;2022-12-07T04:15:14;3.00;99.90
17671;DHT22;8954;48.694;8.940;2022-12-07T04:17:40;2.90;99.90
17671;DHT22;8954;48.694;8.940;2022-12-07T04:20:06;3.00;99.90
17671;DHT22;8954;48.694;8.940;2022-12-07T04:22:32;3.10;99.90
17671;DHT22;8954;48.694;8.940;2022-12-07T04:24:57;3.10;99.90
17671;DHT22;8954;48.694;8.940;2022-12-07T04:27:23;3.00;99.90
17671;DHT22;8954;48.694;8.940;2022-12-07T04:29:48;3.10;99.90
17671;DHT22;8954;48.694;8.940;2022-12-07T04:32:14;3.10;99.90
17671;DHT22;8954;48.694;8.940;2022-12-07T04:34:39;3.00;99.90
17671;DHT22;8954;48.694;8.940;2022-12-07T04:37:05;3.00;99.90
17671;DHT22;8954;48.694;8.940;2022-12-07T04:39:32;3.00;99.90
17671;DHT22;8954;48.694;8.940;2022-12-07T04:41:58;3.00;99.90
17671;DHT22;8954;48.694;8.940;2022-12-07T04:44:25;3.10;99.90
17671;DHT22;8954;48.694;8.940;2022-12-07T04:46:51;3.20;99.90
17671;DHT22;8954;48.694;8.940;2022-12-07T04:49:18;3.30;99.90
17671;DHT22;8954;48.694;8.940;2022-12-07T04:51:44;3.10;99.90
17671;DHT22;8954;48.694;8.940;2022-12-07T04:54:10;3.10;99.90
17671;DHT22;8954;48.694;8.940;2022-12-07T04:56:36;3.10;99.90
17671;DHT22;8954;48.694;8.940;2022-12-07T04:59:02;3.20;99.90
17671;DHT22;8954;48.694;8.940;2022-12-07T05:01:28;3.20;99.90
17671;DHT22;8954;48.694;8.940;2022-12-07T05:03:54;3.00;99.90
17671;DHT22;8954;48.694;8.940;2022-12-07T05:06:20;2.90;99.90
17671;DHT22;8954;48.694;8.940;2022-12-07T05:08:45;2.70;99.90
17671;DHT22;8954;48.694;8.940;2022-12-07T05:11:11;2.40;99.90
17671;DHT22;8954;48.694;8.940;2022-12-07T05:14:01;2.30;99.90
17671;DHT22;8954;48.694;8.940;2022-12-07T05:16:27;2.10;99.90
17671;DHT22;8954;48.694;8.940;2022-12-07T05:18:53;2.00;99.90
17671;DHT22;8954;48.694;8.940;2022-12-07T05:21:18;1.90;99.90
17671;DHT22;8954;48.694;8.940;2022-12-07T05:23:44;1.80;99.90
17671;DHT22;8954;48.694;8.940;2022-12-07T05:26:09;1.80;99.90
17671;DHT22;8954;48.694;8.940;2022-12-07T05:28:35;1.60;99.90
17671;DHT22;8954;48.694;8.940;2022-12-07T05:31:01;1.50;99.90
17671;DHT22;8954;48.694;8.940;2022-12-07T05:33:27;1.50;99.90
17671;DHT22;8954;48.694;8.940;2022-12-07T05:35:52;1.30;99.90
17671;DHT22;8954;48.694;8.940;2022-12-07T05:38:18;1.20;99.90
17671;DHT22;8954;48.694;8.940;2022-12-07T05:40:43;1.10;99.90
17671;DHT22;8954;48.694;8.940;2022-12-07T05:43:10;1.00;99.90
17671;DHT22;8954;48.694;8.940;2022-12-07T05:45:35;1.00;99.90
17671;DHT22;8954;48.694;8.940;2022-12-07T05:48:01;1.00;99.90
17671;DHT22;8954;48.694;8.940;2022-12-07T05:50:26;0.80;99.90
17671;DHT22;8954;48.694;8.940;2022-12-07T05:52:53;0.60;99.90
17671;DHT22;8954;48.694;8.940;2022-12-07T05:55:19;0.50;99.90
17671;DHT22;8954;48.694;8.940;2022-12-07T05:57:45;0.50;99.90
17671;DHT22;8954;48.694;8.940;2022-12-07T06:00:30;0.40;99.90
17671;DHT22;8954;48.694;8.940;2022-12-07T06:02:56;0.40;99.90
17671;DHT22;8954;48.694;8.940;2022-12-07T06:05:21;0.40;99.90
17671;DHT22;8954;48.694;8.940;2022-12-07T06:07:47;0.40;99.90
17671;DHT22;8954;48.694;8.940;2022-12-07T06:10:13;0.40;99.90
17671;DHT22;8954;48.694;8.940;2022-12-07T06:12:38;0.40;99.90
17671;DHT22;8954;48.694;8.940;2022-12-07T06:15:08;0.40;99.90
17671;DHT22;8954;48.694;8.940;2022-12-07T06:17:33;0.50;99.90
17671;DHT22;8954;48.694;8.940;2022-12-07T06:19:59;0.60;99.90
17671;DHT22;8954;48.694;8.940;2022-12-07T06:22:25;0.70;99.90
17671;DHT22;8954;48.694;8.940;2022-12-07T06:24:50;0.80;99.90
17671;DHT22;8954;48.694;8.940;2022-12-07T06:27:16;1.00;99.90
17671;DHT22;8954;48.694;8.940;2022-12-07T06:29:41;1.10;99.90
17671;DHT22;8954;48.694;8.940;2022-12-07T06:32:07;1.10;99.90
17671;DHT22;8954;48.694;8.940;2022-12-07T06:34:33;1.20;99.90
17671;DHT22;8954;48.694;8.940;2022-12-07T06:36:58;1.30;99.90
17671;DHT22;8954;48.694;8.940;2022-12-07T06:39:26;1.30;99.90
17671;DHT22;8954;48.694;8.940;2022-12-07T06:41:52;1.30;99.90
17671;DHT22;8954;48.694;8.940;2022-12-07T06:44:18;1.30;99.90
17671;DHT22;8954;48.694;8.940;2022-12-07T06:46:44;1.40;99.90
17671;DHT22;8954;48.694;8.940;2022-12-07T06:49:10;1.60;99.90
17671;DHT22;8954;48.694;8.940;2022-12-07T06:51:35;1.70;99.90
17671;DHT22;8954;48.694;8.940;2022-12-07T06:54:03;1.70;99.90
17671;DHT22;8954;48.694;8.940;2022-12-07T06:56:29;1.60;99.90
17671;DHT22;8954;48.694;8.940;2022-12-07T06:58:54;1.60;99.90
17671;DHT22;8954;48.694;8.940;2022-12-07T07:01:20;1.60;99.90
17671;DHT22;8954;48.694;8.940;2022-12-07T07:03:46;1.60;99.90
17671;DHT22;8954;48.694;8.940;2022-12-07T07:06:13;1.70;99.90
17671;DHT22;8954;48.694;8.940;2022-12-07T07:08:39;1.70;99.90
17671;DHT22;8954;48.694;8.940;2022-12-07T07:11:06;1.80;99.90
17671;DHT22;8954;48.694;8.940;2022-12-07T07:13:33;1.90;99.90
17671;DHT22;8954;48.694;8.940;2022-12-07T07:15:59;1.90;99.90
17671;DHT22;8954;48.694;8.940;2022-12-07T07:18:25;2.00;99.90
17671;DHT22;8954;48.694;8.940;2022-12-07T07:20:51;2.10;99.90
17671;DHT22;8954;48.694;8.940;2022-12-07T07:23:17;2.20;99.90
17671;DHT22;8954;48.694;8.940;2022-12-07T07:25:44;2.10;99.90
17671;DHT22;8954;48.694;8.940;2022-12-07T07:28:09;2.20;99.90
17671;DHT22;8954;48.694;8.940;2022-12-07T07:30:35;2.10;99.90
17671;DHT22;8954;48.694;8.940;2022-12-07T07:33:02;2.10;99.90
17671;DHT22;8954;48.694;8.940;2022-12-07T07:35:29;2.20;99.90
17671;DHT22;8954;48.694;8.940;2022-12-07T07:37:55;2.40;99.90
17671;DHT22;8954;48.694;8.940;2022-12-07T07:40:21;2.30;99.90
17671;DHT22;8954;48.694;8.940;2022-12-07T07:42:50;2.20;99.90
17671;DHT22;8954;48.694;8.940;2022-12-07T07:45:17;2.20;99.90
17671;DHT22;8954;48.694;8.940;2022-12-07T07:47:42;2.30;99.90
17671;DHT22;8954;48.694;8.940;2022-12-07T07:50:08;2.30;99.90
17671;DHT22;8954;48.694;8.940;2022-12-07T07:52:34;2.30;99.90
17671;DHT22;8954;48.694;8.940;2022-12-07T07:55:00;2.30;99.90
17671;DHT22;8954;48.694;8.940;2022-12-07T07:57:25;2.40;99.90
17671;DHT22;8954;48.694;8.940;2022-12-07T07:59:51;2.40;99.90
17671;DHT22;8954;48.694;8.940;2022-12-07T08:02:18;2.50;99.90
17671;DHT22;8954;48.694;8.940;2022-12-07T08:04:45;2.70;99.90
17671;DHT22;8954;48.694;8.940;2022-12-07T08:07:11;2.80;99.90
17671;DHT22;8954;48.694;8.940;2022-12-07T08:09:37;2.80;99.90
17671;DHT22;8954;48.694;8.940;2022-12-07T08:12:03;2.80;99.90
17671;DHT22;8954;48.694;8.940;2022-12-07T08:14:28;2.80;99.90
17671;DHT22;8954;48.694;8.940;2022-12-07T08:16:54;3.00;99.90
17671;DHT22;8954;48.694;8.940;2022-12-07T08:19:20;3.10;99.90
17671;DHT22;8954;48.694;8.940;2022-12-07T08:21:46;3.20;99.90
17671;DHT22;8954;48.694;8.940;2022-12-07T08:24:12;3.30;99.90
17671;DHT22;8954;48.694;8.940;2022-12-07T08:26:37;3.20;99.90
17671;DHT22;8954;48.694;8.940;2022-12-07T08:29:03;3.20;99.90
17671;DHT22;8954;48.694;8.940;2022-12-07T08:31:29;3.20;99.90
17671;DHT22;8954;48.694;8.940;2022-12-07T08:33:55;3.30;99.90
17671;DHT22;8954;48.694;8.940;2022-12-07T08:36:20;3.20;99.90
17671;DHT22;8954;48.694;8.940;2022-12-07T08:38:48;3.30;99.90
17671;DHT22;8954;48.694;8.940;2022-12-07T08:41:13;3.40;99.90
17671;DHT22;8954;48.694;8.940;2022-12-07T08:43:39;3.40;99.90
17671;DHT22;8954;48.694;8.940;2022-12-07T08:46:25;3.40;99.90
17671;DHT22;8954;48.694;8.940;2022-12-07T08:48:59;3.50;99.90
17671;DHT22;8954;48.694;8.940;2022-12-07T08:51:27;3.60;99.90
17671;DHT22;8954;48.694;8.940;2022-12-07T08:53:54;3.80;99.90
17671;DHT22;8954;48.694;8.940;2022-12-07T08:56:20;3.90;99.90
17671;DHT22;8954;48.694;8.940;2022-12-07T08:58:46;4.00;99.90
17671;DHT22;8954;48.694;8.940;2022-12-07T09:01:12;4.00;99.90
17671;DHT22;8954;48.694;8.940;2022-12-07T09:03:38;4.10;99.90
17671;DHT22;8954;48.694;8.940;2022-12-07T09:06:03;4.20;99.90
17671;DHT22;8954;48.694;8.940;2022-12-07T09:08:36;4.40;99.90
17671;DHT22;8954;48.694;8.940;2022-12-07T09:11:03;4.50;99.90
17671;DHT22;8954;48.694;8.940;2022-12-07T09:13:29;4.70;99.90
17671;DHT22;8954;48.694;8.940;2022-12-07T09:15:54;4.60;99.90
17671;DHT22;8954;48.694;8.940;2022-12-07T09:18:20;4.70;99.90
17671;DHT22;8954;48.694;8.940;2022-12-07T09:20:45;4.70;99.90
17671;DHT22;8954;48.694;8.940;2022-12-07T09:23:11;4.80;99.90
17671;DHT22;8954;48.694;8.940;2022-12-07T09:25:37;4.90;99.90
17671;DHT22;8954;48.694;8.940;2022-12-07T09:28:02;4.90;99.90
17671;DHT22;8954;48.694;8.940;2022-12-07T09:30:28;5.00;99.90
17671;DHT22;8954;48.694;8.940;2022-12-07T09:32:55;5.10;99.90
17671;DHT22;8954;48.694;8.940;2022-12-07T09:35:22;5.20;99.90
17671;DHT22;8954;48.694;8.940;2022-12-07T09:37:48;5.30;99.90
17671;DHT22;8954;48.694;8.940;2022-12-07T09:40:14;5.50;99.90
17671;DHT22;8954;48.694;8.940;2022-12-07T09:42:44;5.60;99.90
17671;DHT22;8954;48.694;8.940;2022-12-07T09:45:15;5.60;99.90
17671;DHT22;8954;48.694;8.940;2022-12-07T09:47:42;5.70;99.90
17671;DHT22;8954;48.694;8.940;2022-12-07T09:50:14;5.80;99.90
17671;DHT22;8954;48.694;8.940;2022-12-07T09:52:41;6.00;99.90
17671;DHT22;8954;48.694;8.940;2022-12-07T09:55:11;6.00;99.90
17671;DHT22;8954;48.694;8.940;2022-12-07T09:57:38;6.20;99.90
17671;DHT22;8954;48.694;8.940;2022-12-07T10:00:11;6.30;99.90
17671;DHT22;8954;48.694;8.940;2022-12-07T10:02:40;6.60;99.90
17671;DHT22;8954;48.694;8.940;2022-12-07T10:05:42;6.90;99.90
17671;DHT22;8954;48.694;8.940;2022-12-07T10:08:12;6.90;99.90
17671;DHT22;8954;48.694;8.940;2022-12-07T10:10:38;7.00;99.90
17671;DHT22;8954;48.694;8.940;2022-12-07T10:13:08;6.80;99.90
17671;DHT22;8954;48.694;8.940;2022-12-07T10:15:41;6.70;99.90
17671;DHT22;8954;48.694;8.940;2022-12-07T10:18:17;6.60;99.90
17671;DHT22;8954;48.694;8.940;2022-12-07T10:20:45;6.60;99.90
17671;DHT22;8954;48.694;8.940;2022-12-07T10:23:16;6.70;99.90
17671;DHT22;8954;48.694;8.940;2022-12-07T10:25:43;6.90;99.90
17671;DHT22;8954;48.694;8.940;2022-12-07T10:31:00;7.00;99.90
17671;DHT22;8954;48.694;8.940;2022-12-07T10:36:00;7.10;99.90
17671;DHT22;8954;48.694;8.940;2022-12-07T10:38:28;7.20;99.90
17671;DHT22;8954;48.694;8.940;2022-12-07T10:41:07;7.20;99.90
17671;DHT22;8954;48.694;8.940;2022-12-07T10:43:33;7.30;99.90
17671;DHT22;8954;48.694;8.940;2022-12-07T10:49:24;7.20;99.90
17671;DHT22;8954;48.694;8.940;2022-12-07T11:00:57;7.30;99.90
17671;DHT22;8954;48.694;8.940;2022-12-07T11:12:17;7.10;99.90
17671;DHT22;8954;48.694;8.940;2022-12-07T11:15:21;7.10;99.90
17671;DHT22;8954;48.694;8.940;2022-12-07T11:20:37;6.90;99.90
17671;DHT22;8954;48.694;8.940;2022-12-07T11:23:16;6.90;99.90
17671;DHT22;8954;48.694;8.940;2022-12-07T11:26:08;6.90;99.90
17671;DHT22;8954;48.694;8.940;2022-12-07T11:28:59;7.00;99.90
17671;DHT22;8954;48.694;8.940;2022-12-07T11:37:13;7.20;99.90
17671;DHT22;8954;48.694;8.940;2022-12-07T11:39:50;7.30;99.90
17671;DHT22;8954;48.694;8.940;2022-12-07T11:42:24;7.20;99.90
17671;DHT22;8954;48.694;8.940;2022-12-07T11:44:55;7.10;99.90
17671;DHT22;8954;48.694;8.940;2022-12-07T11:47:36;7.10;99.90
17671;DHT22;8954;48.694;8.940;2022-12-07T11:55:54;6.80;99.90
17671;DHT22;8954;48.694;8.940;2022-12-07T12:03:41;6.50;99.90
17671;DHT22;8954;48.694;8.940;2022-12-07T12:06:07;6.40;99.90
17671;DHT22;8954;48.694;8.940;2022-12-07T12:08:41;6.40;99.90
17671;DHT22;8954;48.694;8.940;2022-12-07T12:14:43;6.20;99.90
17671;DHT22;8954;48.694;8.940;2022-12-07T12:20:14;6.20;99.90
17671;DHT22;8954;48.694;8.940;2022-12-07T12:22:45;6.30;99.90
17671;DHT22;8954;48.694;8.940;2022-12-07T12:25:24;6.30;99.90
17671;DHT22;8954;48.694;8.940;2022-12-07T12:27:52;6.50;99.90
17671;DHT22;8954;48.694;8.940;2022-12-07T12:30:35;6.60;99.90
17671;DHT22;8954;48.694;8.940;2022-12-07T12:33:13;6.70;99.90
17671;DHT22;8954;48.694;8.940;2022-12-07T12:35:40;6.80;99.90
17671;DHT22;8954;48.694;8.940;2022-12-07T12:38:32;6.60;99.90
17671;DHT22;8954;48.694;8.940;2022-12-07T12:41:00;6.40;99.90
17671;DHT22;8954;48.694;8.940;2022-12-07T12:43:48;6.30;99.90
17671;DHT22;8954;48.694;8.940;2022-12-07T12:51:54;5.90;99.90
17671;DHT22;8954;48.694;8.940;2022-12-07T12:54:21;5.80;99.90
17671;DHT22;8954;48.694;8.940;2022-12-07T13:05:00;5.70;99.90
17671;DHT22;8954;48.694;8.940;2022-12-07T13:18:41;6.00;99.90
17671;DHT22;8954;48.694;8.940;2022-12-07T13:29:15;6.20;99.90
17671;DHT22;8954;48.694;8.940;2022-12-07T13:34:47;6.00;99.90
17671;DHT22;8954;48.694;8.940;2022-12-07T13:39:52;6.20;99.90
17671;DHT22;8954;48.694;8.940;2022-12-07T13:42:38;6.20;99.90
17671;DHT22;8954;48.694;8.940;2022-12-07T13:45:24;6.20;99.90
17671;DHT22;8954;48.694;8.940;2022-12-07T13:51:26;6.20;99.90
17671;DHT22;8954;48.694;8.940;2022-12-07T13:53:55;6.10;99.90
17671;DHT22;8954;48.694;8.940;2022-12-07T13:56:24;6.10;99.90
17671;DHT22;8954;48.694;8.940;2022-12-07T13:58:51;6.20;99.90
17671;DHT22;8954;48.694;8.940;2022-12-07T14:01:17;6.30;99.90
17671;DHT22;8954;48.694;8.940;2022-12-07T14:03:43;6.40;99.90
17671;DHT22;8954;48.694;8.940;2022-12-07T14:06:25;6.40;99.90
17671;DHT22;8954;48.694;8.940;2022-12-07T14:09:17;6.30;99.90
17671;DHT22;8954;48.694;8.940;2022-12-07T14:11:43;6.20;99.90
17671;DHT22;8954;48.694;8.940;2022-12-07T14:14:25;6.10;99.90
17671;DHT22;8954;48.694;8.940;2022-12-07T14:16:57;6.00;99.90
17671;DHT22;8954;48.694;8.940;2022-12-07T14:19:44;5.80;99.90
17671;DHT22;8954;48.694;8.940;2022-12-07T14:22:22;5.70;99.90
17671;DHT22;8954;48.694;8.940;2022-12-07T14:24:48;5.60;99.90
17671;DHT22;8954;48.694;8.940;2022-12-07T14:27:22;5.50;99.90
17671;DHT22;8954;48.694;8.940;2022-12-07T14:29:50;5.50;99.90
17671;DHT22;8954;48.694;8.940;2022-12-07T14:32:27;5.60;99.90
17671;DHT22;8954;48.694;8.940;2022-12-07T14:35:03;5.60;99.90
17671;DHT22;8954;48.694;8.940;2022-12-07T14:37:33;5.50;99.90
17671;DHT22;8954;48.694;8.940;2022-12-07T14:39:58;5.40;99.90
17671;DHT22;8954;48.694;8.940;2022-12-07T14:42:27;5.40;99.90
17671;DHT22;8954;48.694;8.940;2022-12-07T14:44:55;5.30;99.90
17671;DHT22;8954;48.694;8.940;2022-12-07T14:47:21;5.20;99.90
17671;DHT22;8954;48.694;8.940;2022-12-07T14:49:46;5.10;99.90
17671;DHT22;8954;48.694;8.940;2022-12-07T14:52:30;4.90;99.90
17671;DHT22;8954;48.694;8.940;2022-12-07T14:54:56;4.90;99.90
17671;DHT22;8954;48.694;8.940;2022-12-07T14:57:22;4.90;99.90
17671;DHT22;8954;48.694;8.940;2022-12-07T14:59:47;4.90;99.90
17671;DHT22;8954;48.694;8.940;2022-12-07T15:02:15;4.90;99.90
17671;DHT22;8954;48.694;8.940;2022-12-07T15:04:41;4.80;99.90
17671;DHT22;8954;48.694;8.940;2022-12-07T15:07:15;4.80;99.90
17671;DHT22;8954;48.694;8.940;2022-12-07T15:09:43;4.80;99.90
17671;DHT22;8954;48.694;8.940;2022-12-07T15:12:09;4.80;99.90
17671;DHT22;8954;48.694;8.940;2022-12-07T15:14:34;4.80;99.90
17671;DHT22;8954;48.694;8.940;2022-12-07T15:17:00;4.90;99.90
17671;DHT22;8954;48.694;8.940;2022-12-07T15:19:26;4.80;99.90
17671;DHT22;8954;48.694;8.940;2022-12-07T15:21:53;4.80;99.90
17671;DHT22;8954;48.694;8.940;2022-12-07T15:24:19;4.80;99.90
17671;DHT22;8954;48.694;8.940;2022-12-07T15:26:45;4.70;99.90
17671;DHT22;8954;48.694;8.940;2022-12-07T15:29:10;4.70;99.90
17671;DHT22;8954;48.694;8.940;2022-12-07T15:31:37;4.60;99.90
17671;DHT22;8954;48.694;8.940;2022-12-07T15:34:03;4.60;99.90
17671;DHT22;8954;48.694;8.940;2022-12-07T15:36:31;4.50;99.90
17671;DHT22;8954;48.694;8.940;2022-12-07T15:38:57;4.50;99.90
17671;DHT22;8954;48.694;8.940;2022-12-07T15:41:23;4.40;99.90
17671;DHT22;8954;48.694;8.940;2022-12-07T15:43:49;4.30;99.90
17671;DHT22;8954;48.694;8.940;2022-12-07T15:46:36;4.30;99.90
17671;DHT22;8954;48.694;8.940;2022-12-07T15:49:03;4.40;99.90
17671;DHT22;8954;48.694;8.940;2022-12-07T15:51:28;4.40;99.90
17671;DHT22;8954;48.694;8.940;2022-12-07T15:53:54;4.30;99.90
17671;DHT22;8954;48.694;8.940;2022-12-07T15:56:20;4.30;99.90
17671;DHT22;8954;48.694;8.940;2022-12-07T15:58:46;4.20;99.90
17671;DHT22;8954;48.694;8.940;2022-12-07T16:01:13;4.20;99.90
17671;DHT22;8954;48.694;8.940;2022-12-07T16:03:39;4.00;99.90
17671;DHT22;8954;48.694;8.940;2022-12-07T16:06:05;3.90;99.90
17671;DHT22;8954;48.694;8.940;2022-12-07T16:08:30;3.90;99.90
17671;DHT22;8954;48.694;8.940;2022-12-07T16:10:56;4.00;99.90
17671;DHT22;8954;48.694;8.940;2022-12-07T16:13:21;4.00;99.90
17671;DHT22;8954;48.694;8.940;2022-12-07T16:15:47;3.90;99.90
17671;DHT22;8954;48.694;8.940;2022-12-07T16:18:13;3.90;99.90
17671;DHT22;8954;48.694;8.940;2022-12-07T16:20:39;3.90;99.90
17671;DHT22;8954;48.694;8.940;2022-12-07T16:23:04;3.90;99.90
17671;DHT22;8954;48.694;8.940;2022-12-07T16:25:30;3.70;99.90
17671;DHT22;8954;48.694;8.940;2022-12-07T16:27:55;3.60;99.90
17671;DHT22;8954;48.694;8.940;2022-12-07T16:30:21;3.50;99.90
17671;DHT22;8954;48.694;8.940;2022-12-07T16:32:47;3.40;99.90
17671;DHT22;8954;48.694;8.940;2022-12-07T16:35:12;3.30;99.90
17671;DHT22;8954;48.694;8.940;2022-12-07T16:37:38;3.20;99.90
17671;DHT22;8954;48.694;8.940;2022-12-07T16:40:05;3.20;99.90
17671;DHT22;8954;48.694;8.940;2022-12-07T16:42:32;3.10;99.90
17671;DHT22;8954;48.694;8.940;2022-12-07T16:45:01;3.10;99.90
17671;DHT22;8954;48.694;8.940;2022-12-07T16:47:27;3.10;99.90
17671;DHT22;8954;48.694;8.940;2022-12-07T16:49:53;3.00;99.90
17671;DHT22;8954;48.694;8.940;2022-12-07T16:52:20;3.00;99.90
17671;DHT22;8954;48.694;8.940;2022-12-07T16:54:46;3.00;99.90
17671;DHT22;8954;48.694;8.940;2022-12-07T16:57:12;3.10;99.90
17671;DHT22;8954;48.694;8.940;2022-12-07T16:59:37;3.20;99.90
17671;DHT22;8954;48.694;8.940;2022-12-07T17:02:03;3.30;99.90
17671;DHT22;8954;48.694;8.940;2022-12-07T17:04:29;3.20;99.90
17671;DHT22;8954;48.694;8.940;2022-12-07T17:06:55;3.20;99.90
17671;DHT22;8954;48.694;8.940;2022-12-07T17:09:20;3.10;99.90
17671;DHT22;8954;48.694;8.940;2022-12-07T17:11:46;3.10;99.90
17671;DHT22;8954;48.694;8.940;2022-12-07T17:14:11;3.00;99.90
17671;DHT22;8954;48.694;8.940;2022-12-07T17:16:56;3.00;99.90
17671;DHT22;8954;48.694;8.940;2022-12-07T17:19:21;3.00;99.90
17671;DHT22;8954;48.694;8.940;2022-12-07T17:21:47;3.00;99.90
17671;DHT22;8954;48.694;8.940;2022-12-07T17:24:14;3.00;99.90
17671;DHT22;8954;48.694;8.940;2022-12-07T17:26:41;2.90;99.90
17671;DHT22;8954;48.694;8.940;2022-12-07T17:29:08;2.80;99.90
17671;DHT22;8954;48.694;8.940;2022-12-07T17:31:34;2.80;99.90
17671;DHT22;8954;48.694;8.940;2022-12-07T17:34:01;2.70;99.90
17671;DHT22;8954;48.694;8.940;2022-12-07T17:36:28;2.70;99.90
17671;DHT22;8954;48.694;8.940;2022-12-07T17:38:54;2.70;99.90
17671;DHT22;8954;48.694;8.940;2022-12-07T17:41:23;2.70;99.90
17671;DHT22;8954;48.694;8.940;2022-12-07T17:44:10;2.70;99.90
17671;DHT22;8954;48.694;8.940;2022-12-07T17:46:37;2.60;99.90
17671;DHT22;8954;48.694;8.940;2022-12-07T17:49:02;2.60;99.90
17671;DHT22;8954;48.694;8.940;2022-12-07T17:51:28;2.60;99.90
17671;DHT22;8954;48.694;8.940;2022-12-07T17:54:13;2.60;99.90
17671;DHT22;8954;48.694;8.940;2022-12-07T17:56:40;2.70;99.90
17671;DHT22;8954;48.694;8.940;2022-12-07T17:59:06;2.70;99.90
17671;DHT22;8954;48.694;8.940;2022-12-07T18:01:31;2.70;99.90
17671;DHT22;8954;48.694;8.940;2022-12-07T18:03:57;2.70;99.90
17671;DHT22;8954;48.694;8.940;2022-12-07T18:06:23;2.70;99.90
17671;DHT22;8954;48.694;8.940;2022-12-07T18:08:48;2.70;99.90
17671;DHT22;8954;48.694;8.940;2022-12-07T18:11:14;2.80;99.90
17671;DHT22;8954;48.694;8.940;2022-12-07T18:13:39;2.80;99.90
17671;DHT22;8954;48.694;8.940;2022-12-07T18:16:12;2.90;99.90